Bison, Kansas
Current Conditions -  °F | °C
As of 4:35 PM on Wednesday 22 Oct 2014 (Local Time) from KGBD Reporting Station
Broken Clouds Broken Clouds  
Wind Chill: 66°   Ceiling: 11000
Heat Index: 66°   Visibility: 10mi
Dew Point: 55°   Wind: 16mph
Humidity: 68%   Direction: 190°S
Pressure: 30.03"   Gusts: NA
Location:  38.52°N, 99.2°W
Report Text: KGBD 222135Z AUTO 19014KT 10SM FEW065 SCT085 BKN110 19/13 A3003 RMK AO1
Loading
Personal Weather Stations






























Interactive Weather Map
Tropical Storm Tracking
New forecast layout! Learn more

10-Day Weather Forecast

Advertisements
Track Severe Weather on mobile